Republic, Washington
Current Conditions -  °F | °C
As of 10:53 AM on Sunday 23 Nov 2014 (Local Time) from KOMK Reporting Station
Overcast Overcast  
Wind Chill: -3°   Ceiling: 8000
Heat Index:   Visibility: 7mi
Dew Point: -1°   Wind: 8mph
Humidity: 92%   Direction: 130°SE
Pressure: 30"   Gusts: NA
Location:  48.65°N, 118.74°W
Report Text: KOMK 231853Z AUTO 13007KT 7SM BKN080 OVC100 01/M01 A3000 RMK AO2 SLP177 I1000 T00061006
Loading
Personal Weather Stations






























Interactive Weather Map New forecast layout! Learn more

10-Day Weather Forecast

Advertisements
Track Severe Weather on mobile